createdAt,value
2023-03-12T00:01:34.538Z,52.84
2023-03-12T00:06:39.475Z,53.62
2023-03-12T00:11:42.958Z,53.20
2023-03-12T00:16:46.349Z,53.77
2023-03-12T00:21:51.181Z,53.89
2023-03-12T00:26:54.636Z,53.39
2023-03-12T00:31:58.207Z,53.58
2023-03-12T00:37:03.055Z,53.75
2023-03-12T00:42:07.351Z,53.98
2023-03-12T00:47:11.309Z,54.11
2023-03-12T00:52:16.095Z,54.45
2023-03-12T00:57:19.802Z,54.29
2023-03-12T01:02:23.504Z,54.55
2023-03-12T01:07:28.433Z,55.19
2023-03-12T01:12:31.941Z,54.13
2023-03-12T01:17:35.454Z,54.42
2023-03-12T01:22:40.529Z,55.10
2023-03-12T01:27:44.051Z,55.20
2023-03-12T01:32:47.607Z,55.17
2023-03-12T01:37:53.175Z,56.59
2023-03-12T01:42:58.406Z,56.74
2023-03-12T01:48:02.290Z,56.21
2023-03-12T01:53:07.436Z,56.60
2023-03-12T01:58:11.268Z,56.04
2023-03-12T02:03:16.335Z,56.16
2023-03-12T02:08:22.993Z,56.55
2023-03-12T02:13:28.069Z,56.88
2023-03-12T02:18:32.138Z,56.31
2023-03-12T02:23:44.533Z,56.50
2023-03-12T02:28:50.575Z,56.49
2023-03-12T02:33:56.026Z,56.40
2023-03-12T02:38:59.524Z,56.75
2023-03-12T02:44:06.955Z,56.30
2023-03-12T02:49:13.675Z,56.22
2023-03-12T02:54:19.989Z,56.47
2023-03-12T02:59:26.689Z,57.30
2023-03-12T03:04:34.784Z,56.62
2023-03-12T03:09:38.393Z,57.50
2023-03-12T03:14:43.256Z,57.38
2023-03-12T03:19:47.964Z,57.64
2023-03-12T03:24:51.630Z,57.79
2023-03-12T03:29:56.585Z,57.89
2023-03-12T03:40:53.198Z,57.47
2023-03-12T03:46:03.355Z,58.61
2023-03-12T03:51:12.166Z,58.72
2023-03-12T03:56:19.918Z,58.71
2023-03-12T04:01:27.637Z,59.17
2023-03-12T04:06:33.028Z,59.16
2023-03-12T04:11:36.817Z,58.60
2023-03-12T04:16:43.666Z,58.08
2023-03-12T04:21:48.208Z,58.65
2023-03-12T04:26:51.996Z,58.06
2023-03-12T04:31:57.113Z,58.25
2023-03-12T04:37:01.897Z,58.40
2023-03-12T04:42:06.117Z,58.46
2023-03-12T04:47:15.772Z,57.89
2023-03-12T04:52:19.385Z,58.73
2023-03-12T04:57:23.012Z,58.48
2023-03-12T05:02:27.917Z,58.32
2023-03-12T05:07:31.799Z,58.98
2023-03-12T05:12:36.132Z,58.54
2023-03-12T05:17:41.110Z,58.52
2023-03-12T05:22:45.426Z,58.14
2023-03-12T05:27:57.699Z,57.43
2023-03-12T05:33:03.264Z,57.88
2023-03-12T05:38:08.204Z,58.27
2023-03-12T05:43:12.107Z,57.78
2023-03-12T05:48:17.349Z,58.67
2023-03-12T05:53:20.820Z,59.42
2023-03-12T05:58:24.410Z,58.87
2023-03-12T06:03:29.617Z,58.86
2023-03-12T06:08:33.472Z,58.75
2023-03-12T06:13:37.129Z,58.92
2023-03-12T06:18:42.032Z,59.03
2023-03-12T06:23:46.395Z,58.46
2023-03-12T06:29:00.649Z,58.11
2023-03-12T06:34:30.581Z,58.99
2023-03-12T06:39:34.621Z,59.18
2023-03-12T06:44:38.039Z,59.68
2023-03-12T06:49:42.899Z,60.62
2023-03-12T06:54:46.417Z,60.81
2023-03-12T06:59:50.692Z,60.36
2023-03-12T07:04:55.704Z,61.28
2023-03-12T07:09:59.170Z,62.66
2023-03-12T07:15:02.707Z,63.41
2023-03-12T07:20:08.634Z,63.44
2023-03-12T07:25:12.484Z,63.81
2023-03-12T07:30:16.362Z,63.50
2023-03-12T07:35:21.288Z,64.13
2023-03-12T07:40:24.899Z,64.75
2023-03-12T07:45:28.519Z,64.40
2023-03-12T07:50:33.821Z,65.18
2023-03-12T07:55:37.256Z,65.06
2023-03-12T08:00:41.102Z,64.90
2023-03-12T08:05:45.965Z,65.36
2023-03-12T08:10:50.102Z,64.64
2023-03-12T08:15:54.724Z,64.00
2023-03-12T08:20:59.692Z,64.80
2023-03-12T08:26:03.287Z,65.21
2023-03-12T08:31:07.285Z,65.27
2023-03-12T08:36:12.197Z,65.72
2023-03-12T08:41:15.684Z,66.88
2023-03-12T08:46:19.365Z,67.07
2023-03-12T08:51:24.290Z,67.48
2023-03-12T08:56:27.861Z,67.67
2023-03-12T09:01:31.625Z,67.51
2023-03-12T09:06:38.750Z,67.35
2023-03-12T09:11:42.618Z,67.30
2023-03-12T09:16:46.171Z,67.31
2023-03-12T09:21:51.432Z,67.19
2023-03-12T09:26:54.953Z,66.75
2023-03-12T09:31:59.502Z,67.00
2023-03-12T09:37:04.480Z,66.87
2023-03-12T09:42:17.616Z,67.68
2023-03-12T09:47:28.020Z,67.02
2023-03-12T09:52:40.867Z,67.79
2023-03-12T09:57:45.238Z,68.17
2023-03-12T10:03:00.011Z,67.78
2023-03-12T10:08:23.985Z,68.86
2023-03-12T10:13:52.186Z,67.64
2023-03-12T10:19:39.279Z,66.91
2023-03-12T10:24:57.495Z,68.09
2023-03-12T10:30:02.458Z,69.17
2023-03-12T10:35:15.834Z,69.63
2023-03-12T10:40:24.216Z,73.23
2023-03-12T10:45:33.019Z,72.46
2023-03-12T10:50:38.556Z,71.08
2023-03-12T10:55:43.687Z,71.59
2023-03-12T11:00:57.196Z,73.40
2023-03-12T11:06:02.543Z,75.52
2023-03-12T11:11:07.548Z,74.81
2023-03-12T11:16:31.410Z,75.29
2023-03-12T11:21:38.232Z,74.81
2023-03-12T11:26:51.059Z,74.09
2023-03-12T11:32:03.094Z,72.99
2023-03-12T11:37:13.090Z,72.43
2023-03-12T11:42:29.525Z,70.83
2023-03-12T11:47:50.214Z,68.85
2023-03-12T11:53:18.141Z,70.61
2023-03-12T11:58:34.256Z,71.27
2023-03-12T12:04:28.553Z,71.14
2023-03-12T12:09:40.066Z,69.23
2023-03-12T12:14:59.115Z,68.11
2023-03-12T12:20:17.506Z,67.53
2023-03-12T12:25:30.188Z,67.32
2023-03-12T12:30:48.399Z,64.94
2023-03-12T12:35:52.430Z,63.08
2023-03-12T12:41:01.393Z,64.07
2023-03-12T12:46:10.201Z,62.95
2023-03-12T12:51:14.193Z,63.71
2023-03-12T12:56:23.330Z,63.46
2023-03-12T13:01:28.958Z,63.96
2023-03-12T13:06:54.904Z,62.31
2023-03-12T13:11:58.365Z,62.79
2023-03-12T13:17:34.887Z,62.88
2023-03-12T13:23:03.063Z,62.27
2023-03-12T13:28:32.795Z,62.84
2023-03-12T13:33:46.341Z,61.45
2023-03-12T13:38:56.321Z,60.15
2023-03-12T13:44:00.135Z,58.14
2023-03-12T13:49:12.234Z,58.38
2023-03-12T13:54:19.789Z,56.56
2023-03-12T13:59:25.932Z,56.65
2023-03-12T14:04:36.135Z,58.18
2023-03-12T14:09:44.364Z,59.29
2023-03-12T14:15:02.714Z,61.46
2023-03-12T14:20:15.964Z,60.29
2023-03-12T14:25:31.662Z,60.81
2023-03-12T14:30:45.831Z,59.57
2023-03-12T14:35:54.745Z,59.90
2023-03-12T14:41:03.193Z,60.27
2023-03-12T14:46:15.286Z,59.62
2023-03-12T14:51:24.468Z,59.04
2023-03-12T14:56:32.539Z,58.21
2023-03-12T15:01:40.625Z,58.86
2023-03-12T15:06:48.287Z,57.05
2023-03-12T15:11:55.434Z,57.15
2023-03-12T15:17:00.521Z,56.84
2023-03-12T15:22:06.496Z,55.18
2023-03-12T15:27:21.329Z,55.53
2023-03-12T15:32:26.020Z,52.94
2023-03-12T15:37:40.540Z,54.09
2023-03-12T15:42:47.887Z,52.72
2023-03-12T15:47:54.618Z,53.80
2023-03-12T15:53:05.961Z,54.36
2023-03-12T15:58:25.752Z,54.36
2023-03-12T16:03:30.804Z,54.02
2023-03-12T16:08:42.124Z,53.68
2023-03-12T16:13:46.801Z,53.39
2023-03-12T16:18:50.217Z,53.29
2023-03-12T16:23:55.154Z,53.52
2023-03-12T16:28:59.705Z,53.81
2023-03-12T16:34:03.231Z,54.66
2023-03-12T16:39:07.997Z,54.63
2023-03-12T16:44:19.604Z,54.65
2023-03-12T16:49:23.391Z,54.95
2023-03-12T16:54:28.267Z,54.74
2023-03-12T16:59:33.276Z,54.37
2023-03-12T17:04:36.825Z,53.64
2023-03-12T17:09:42.045Z,53.47
2023-03-12T17:14:45.586Z,52.89
2023-03-12T17:19:49.072Z,53.00
2023-03-12T17:24:54.014Z,53.16
2023-03-12T17:29:57.481Z,53.34
2023-03-12T17:35:03.244Z,53.34
2023-03-12T17:40:11.098Z,53.41
2023-03-12T17:45:14.871Z,53.07
2023-03-12T17:50:18.617Z,53.41
2023-03-12T17:55:23.484Z,53.72
2023-03-12T18:00:27.133Z,53.72
2023-03-12T18:05:31.199Z,53.19
2023-03-12T18:10:39.040Z,53.36
2023-03-12T18:15:42.682Z,53.90
2023-03-12T18:20:46.279Z,53.01
2023-03-12T18:25:51.099Z,53.68
2023-03-12T18:30:54.836Z,53.07
2023-03-12T18:35:58.428Z,52.77
2023-03-12T18:41:07.709Z,53.01
2023-03-12T18:46:13.007Z,52.82
2023-03-12T18:51:16.548Z,53.57
2023-03-12T18:56:24.749Z,53.73
2023-03-12T19:01:28.346Z,53.66
2023-03-12T19:06:47.823Z,53.53
2023-03-12T19:11:55.057Z,53.55
2023-03-12T19:16:58.927Z,53.49
2023-03-12T19:22:02.390Z,53.72
2023-03-12T19:27:07.343Z,53.56
2023-03-12T19:32:10.801Z,52.88
2023-03-12T19:37:14.328Z,53.12
2023-03-12T19:42:19.240Z,53.23
2023-03-12T19:47:22.738Z,52.84
2023-03-12T19:52:26.319Z,52.68
2023-03-12T19:57:31.587Z,53.05
2023-03-12T20:02:35.248Z,53.33
2023-03-12T20:07:38.795Z,52.90
2023-03-12T20:12:43.695Z,53.18
2023-03-12T20:17:47.574Z,53.25
2023-03-12T20:22:52.264Z,53.62
2023-03-12T20:27:58.048Z,53.32
2023-03-12T20:33:01.664Z,53.17
2023-03-12T20:38:05.352Z,53.25
2023-03-12T20:43:10.269Z,53.26
2023-03-12T20:48:13.769Z,53.41
2023-03-12T20:53:17.369Z,53.68
2023-03-12T20:58:23.028Z,53.95
2023-03-12T21:03:26.512Z,53.68
2023-03-12T21:08:30.954Z,53.98
2023-03-12T21:13:37.304Z,53.67
2023-03-12T21:18:40.793Z,53.90
2023-03-12T21:23:44.506Z,54.10
2023-03-12T21:28:49.375Z,54.38
2023-03-12T21:33:55.878Z,54.33
2023-03-12T21:39:02.432Z,53.89
2023-03-12T21:44:07.400Z,53.99
2023-03-12T21:49:11.023Z,54.09
2023-03-12T21:54:14.614Z,54.50
2023-03-12T21:59:19.507Z,54.37
2023-03-12T22:04:23.612Z,54.46
2023-03-12T22:09:27.380Z,54.77
2023-03-12T22:14:38.435Z,54.31
2023-03-12T22:19:42.162Z,55.12
2023-03-12T22:24:45.615Z,55.23
2023-03-12T22:29:52.945Z,55.35
2023-03-12T22:34:56.360Z,55.84
2023-03-12T22:40:01.513Z,55.83
2023-03-12T22:45:07.921Z,56.03
2023-03-12T22:50:12.703Z,55.68
2023-03-12T22:55:16.383Z,56.07
2023-03-12T23:00:49.283Z,56.28
2023-03-12T23:05:52.625Z,56.73
2023-03-12T23:10:57.729Z,57.39
2023-03-12T23:16:04.394Z,57.45
2023-03-12T23:21:09.605Z,57.33
2023-03-12T23:26:18.985Z,57.30
2023-03-12T23:31:23.916Z,57.49
2023-03-12T23:36:27.634Z,57.78
2023-03-12T23:41:31.200Z,57.82
2023-03-12T23:46:36.194Z,58.07
2023-03-12T23:51:41.025Z,58.18
2023-03-12T23:56:44.479Z,58.01
